33OH weather

Sunset Strip
Jerome, Ohio, United States

Public forecast

Using degrees Fahrenheit for public forecast. Weather courtesy of forecast.io.

METAR (pilot weather report)

Closest report is Delaware Municipal Airport, 6.3 nm (11.6 km) NNE. Retrieved 2019/05/24 06:35 UTC (12 minutes ago):

KDLZ 240635Z AUTO 00000KT 10SM CLR 17/13 A3009 RMK AO2

TAF (pilot weather forecast)

Closest forecast is John Glenn Columbus International Airport, 17.1 nm (31.7 km) SE. Retrieved 2019/05/24 06:36 UTC (11 minutes ago):

TAF KCMH 240535Z 2406/2506 32006KT P6SM FEW250 FM240700 35004KT P6SM FEW250 FM241300 VRB04KT P6SM SCT100 FM242200 00000KT P6SM SCT120